Terminal Aerodrome Forecast
Issued by NWS

Home | Current Version | Previous Version | Text Only | Print | Product List | Glossary On
Versions: 1 2 3 4 5 6 7 8 9 10 11 12 13 14 15 16 17 18 19 20 21 22 23 24
913
FTUS42 TJSJ 250535
TAFKPK
TAF
TKPK 250535Z 2506/2606 08008KT P6SM VCSH SCT018
     FM251300 09015KT P6SM VCSH SCT020
     FM252300 08008KT P6SM SCT018
      AMD NOT SKED TIL 251100=

USA.gov is the U.S. government's official web portal to all federal, state and local government web resources and services.